WEATHER DATA

YESTERDAY
Time Temp. Dewp. Hum. Wind dir Wind speed Wind gust Bar. 1h Prec. 24h Prec.
00:06 13.6 8.9 73 270 0.3 1.1 1016.6 0.0000 0.0000
00:16 13.5 8.8 73 233 0.6 1.1 1016.6 0.0000 0.0000
00:26 13.3 8.8 74 225 0.6 1.1 1016.7 0.0000 0.0000
00:36 13 8.5 74 239 0.6 1.1 1016.6 0.0000 0.0000
00:47 12.9 8.6 75 231 0.6 1.1 1016.6 0.0000 0.0000
00:56 12.7 8.4 75 235 0.6 1.1 1016.6 0.0000 0.0000
01:06 12.4 8.3 76 231 0.6 1.1 1016.6 0.0000 0.0000
01:16 12.3 8.2 76 232 0.6 1.1 1016.6 0.0000 0.0000
01:27 12.2 8.3 77 225 0.3 0.8 1016.5 0.0000 0.0000
01:36 12.1 8.2 77 233 0.6 1.4 1016.4 0.0000 0.0000
01:46 11.9 8 77 225 0.6 1.1 1016.4 0.0000 0.0000
01:57 11.8 8.1 78 213 0.8 1.7 1016.4 0.0000 0.0000
02:07 11.7 8.2 79 210 0.8 1.9 1016.4 0.0000 0.0000
02:16 11.7 8.2 79 226 1.4 2.2 1016.4 0.0000 0.0000
02:27 11.8 8.5 80 223 1.1 1.7 1016.4 0.0000 0.0000
02:37 11.7 8.2 79 229 1.1 1.7 1016.4 0.0000 0.0000
02:47 11.7 8.4 80 213 0.6 1.4 1016.3 0.0000 0.0000
02:57 11.7 8.4 80 212 0.8 1.4 1016.2 0.0000 0.0000
03:07 11.7 8.4 80 216 0.8 1.7 1016.3 0.0000 0.0000
03:17 11.6 8.3 80 217 0.6 1.4 1016.4 0.0000 0.0000
03:27 11.7 8.4 80 270 0.6 0.8 1016.4 0.0000 0.0000
03:37 11.5 8.2 80 221 0.8 1.7 1016.4 0.0000 0.0000
03:47 11.5 8.4 81 217 0.8 1.7 1016.4 0.0000 0.0000
03:57 11.3 8 80 225 0.3 0.8 1016.4 0.0000 0.0000
04:07 11.3 8.2 81 251 0.6 1.1 1016.3 0.0000 0.0000
04:18 11.2 8.1 81 218 0.6 0.8 1016.2 0.0000 0.0000
04:27 11 7.9 81 293 0.6 0.8 1016.2 0.0000 0.0000
04:37 10.9 8 82 270 0.3 0.8 1016.1 0.0000 0.0000
04:47 10.8 7.9 82 208 0.3 1.1 1016 0.0000 0.0000
04:58 10.7 7.8 82 225 0.6 1.4 1016 0.0000 0.0000
05:07 10.6 7.7 82 208 0.6 1.4 1016 0.0000 0.0000
05:17 10.5 7.6 82 204 0.6 1.1 1015.9 0.0000 0.0000
05:28 10.4 7.6 83 220 1.4 1.9 1015.8 0.0000 0.0000
05:38 10.3 7.5 83 225 1.1 1.9 1015.8 0.0000 0.0000
05:47 10.3 7.5 83 236 0.6 1.1 1016 0.0000 0.0000
05:58 10.2 7.6 84 315 0.8 1.4 1015.9 0.0000 0.0000
06:08 10 7.6 85 270 0.3 1.4 1015.9 0.0000 0.0000
06:18 10.1 7.9 86 225 0.8 1.4 1015.9 0.0000 0.0000
06:28 10.2 7.8 85 247 0.6 1.4 1015.9 0.0000 0.0000
06:38 10.1 7.9 86 255 0.6 1.4 1016 0.0000 0.0000
06:48 10.2 8 86 216 0.3 0.8 1016 0.0000 0.0000
06:58 10.2 8 86 270 0.3 0.6 1016.1 0.0000 0.0000
07:09 10.2 7.8 85 270 0.3 0.8 1016.2 0.0000 0.0000
07:18 10.2 7.8 85 220 0.3 0.8 1016.2 0.0000 0.0000
07:28 10.1 7.9 86 302 0.3 0.8 1016.2 0.0000 0.0000
07:38 10 7.8 86 315 0.6 1.1 1016.3 0.0000 0.0000
07:49 10 7.8 86 220 0.3 0.8 1016.3 0.0000 0.0000
07:58 10 7.9 87 240 0.3 0.8 1016.4 0.0000 0.0000
08:08 10.1 8 87 226 0.6 1.7 1016.4 0.0000 0.0000
08:19 10.4 8.3 87 202 0.6 1.1 1016.4 0.0000 0.0000
08:29 10.7 8.6 87 229 0.3 0.8 1016.4 0.0000 0.0000
08:39 11 8.9 87 270 0.3 0.8 1016.5 0.0000 0.0000
08:48 11.3 9 86 295 0.6 1.1 1016.6 0.0000 0.0000
08:59 11.6 9.3 86 270 0.3 0.8 1016.6 0.0000 0.0000
09:09 12.1 9.8 86 302 0.3 0.8 1016.7 0.0000 0.0000
09:19 12.5 10 85 270 0.3 1.1 1016.7 0.0000 0.0000
09:29 13.2 10.4 83 270 0.6 1.1 1016.7 0.0000 0.0000
09:39 13.8 10.6 81 240 0.3 1.4 1016.6 0.0000 0.0000
09:49 14.5 10.9 79 225 0.3 1.1 1016.6 0.0000 0.0000
09:59 15 10.8 76 270 0.3 1.1 1016.6 0.0000 0.0000
10:10 15.3 10.5 73 225 0.6 1.9 1016.5 0.0000 0.0000
10:19 15.8 10.8 72 225 0.6 1.4 1016.5 0.0000 0.0000
10:29 16 10.5 70 246 0.8 1.7 1016.4 0.0000 0.0000
10:40 16.4 10.5 68 242 0.6 1.7 1016.4 0.0000 0.0000
10:57 17.4 10.5 64 161 0.6 2.5 1016.2 0.0000 0.0000
11:11 17.8 10.7 63 270 0.6 1.9 1016.2 0.0000 0.0000
11:21 18 10.4 61 228 0.6 2.2 1016.2 0.0000 0.0000
11:31 18 10.1 60 315 0.6 1.7 1016.2 0.0000 0.0000
11:41 18 9.9 59 307 1.1 2.5 1016.2 0.0000 0.0000
11:51 18.2 10.1 59 312 0.8 1.9 1016.1 0.0000 0.0000
12:01 18.8 10.6 59 270 0.6 1.9 1016 0.0000 0.0000
12:11 19.2 10 55 315 1.1 2.2 1015.9 0.0000 0.0000
12:22 19.3 10 55 315 1.1 2.2 1015.8 0.0000 0.0000
12:31 19.6 10 54 260 1.1 1.9 1015.7 0.0000 0.0000
12:41 20.1 10.2 53 338 0.8 1.9 1015.7 0.0000 0.0000
12:46 20.3 10.4 53 149 0.8 2.2 1015.6 0.0000 0.0000
12:57 20.7 10.2 51 282 0.8 2.2 1015.3 0.0000 0.0000
13:07 20.3 9.8 51 270 0.6 1.4 1015.2 0.0000 0.0000
13:16 20.5 9.7 50 297 0.6 1.7 1015.2 0.0000 0.0000
13:27 20.1 9.7 51 301 0.6 1.4 1015.1 0.0000 0.0000
13:37 20.1 9.9 52 90 0.3 1.1 1015.1 0.0000 0.0000
13:47 20.6 10.1 51 175 0.6 1.4 1015 0.0000 0.0000
13:57 20.8 9.7 49 270 0.6 1.9 1015 0.0000 0.0000
14:07 20.7 9.6 49 217 0.8 1.7 1015 0.0000 0.0000
14:17 20.8 10 50 220 0.8 1.9 1014.9 0.0000 0.0000
14:27 21.1 10 49 237 0.6 1.4 1015 0.0000 0.0000
14:37 21.2 9.8 48 288 0.6 1.4 1015.1 0.0000 0.0000
14:47 21.2 9.5 47 320 0.6 0.8 1015 0.0000 0.0000
14:57 21.4 9.9 48 180 0.3 0.8 1014.9 0.0000 0.0000
15:07 21.4 9.6 47 310 0.6 1.4 1014.9 0.0000 0.0000
15:18 21.5 9.1 45 257 0.8 1.7 1014.9 0.0000 0.0000
15:27 21.4 9.6 47 270 0.6 2.5 1014.8 0.0000 0.0000
15:43 21.7 9.3 45 270 0.6 1.4 1014.8 0.0000 0.0000
15:53 21.9 9.4 45 307 0.8 2.2 1014.7 0.0000 0.0000
16:03 22.1 9.6 45 222 0.8 1.9 1014.6 0.0000 0.0000
16:13 22.1 9.6 45 216 0.6 1.9 1014.6 0.0000 0.0000
16:23 22.3 9.5 44 201 0.6 1.7 1014.5 0.0000 0.0000
16:33 22.3 9.8 45 208 1.1 1.7 1014.4 0.0000 0.0000
16:43 22.6 10.4 46 183 0.6 2.2 1014.4 0.0000 0.0000
16:53 22.9 10 44 257 1.1 2.5 1014.4 0.0000 0.0000
17:04 22.4 10.9 48 310 0.8 3.1 1014.3 0.0000 0.0000
17:13 22.2 11 49 296 0.8 2.2 1014.4 0.0000 0.0000
17:23 21.7 11.7 53 299 1.1 4.4 1014.4 0.0000 0.0000
17:34 21.5 12.1 55 310 1.1 4.7 1014.4 0.0000 0.0000
17:44 21.7 11.7 53 332 0.6 3.1 1014.4 0.0000 0.0000
17:53 21.6 11.9 54 149 0.8 1.9 1014.5 0.0000 0.0000
18:03 21.6 11.6 53 270 0.6 1.7 1014.5 0.0000 0.0000
18:14 21.6 11.3 52 243 0.6 2.2 1014.5 0.0000 0.0000
18:24 21.6 11.3 52 300 0.6 2.2 1014.5 0.0000 0.0000
18:34 21.5 11.8 54 341 0.8 2.2 1014.6 0.0000 0.0000
18:44 21.2 11.8 55 124 0.6 1.7 1014.7 0.0000 0.0000
18:54 21.1 12 56 78 0.8 2.5 1014.6 0.0000 0.0000
19:04 20.7 12.1 58 310 1.4 3.3 1014.5 0.0000 0.0000
19:14 20.5 12.2 59 292 0.8 2.2 1014.5 0.0000 0.0000
19:24 20.3 12 59 312 0.8 2.2 1014.6 0.0000 0.0000
19:34 20 12 60 310 1.4 3.3 1014.5 0.0000 0.0000
19:44 19.7 12 61 307 0.8 2.8 1014.6 0.0000 0.0000
19:55 19.5 12.3 63 306 1.4 2.8 1014.6 0.0000 0.0000
20:04 19.2 12.5 65 300 1.1 2.8 1014.7 0.0000 0.0000
20:14 18.9 12.4 66 291 0.8 2.5 1014.7 0.0000 0.0000
20:24 18.7 12.2 66 315 0.6 1.9 1014.8 0.0000 0.0000
20:35 18.5 12.3 67 301 0.8 3.1 1014.8 0.0000 0.0000
20:45 18.1 12.1 68 311 1.4 3.1 1014.9 0.0000 0.0000
20:54 17.8 12 69 307 1.1 3.1 1015 0.0000 0.0000
21:05 17.5 12 70 312 0.8 3.3 1015.1 0.0000 0.0000
21:15 17.2 11.9 71 295 0.6 2.8 1015.1 0.0000 0.0000
21:25 17 11.7 71 292 0.6 1.9 1015.2 0.0000 0.0000
21:35 16.8 11.7 72 270 0.3 1.4 1015.3 0.0000 0.0000
21:45 16.7 11.6 72 270 0.6 1.1 1015.5 0.0000 0.0000
21:55 16.5 11.4 72 315 0.3 1.4 1015.6 0.0000 0.0000
22:05 16.4 11.6 73 213 0.3 1.1 1015.6 0.0000 0.0000
22:15 16.3 11.5 73 270 0.6 1.9 1015.7 0.0000 0.0000
22:25 16.3 11.7 74 270 0.3 1.4 1015.8 0.0000 0.0000
22:35 16.1 11.5 74 251 0.6 1.1 1016 0.0000 0.0000
22:45 16 11.6 75 298 0.6 1.7 1016.1 0.0000 0.0000
22:55 15.9 11.5 75 270 0.3 1.1 1016.1 0.0000 0.0000
23:05 15.8 11.6 76 233 0.3 0.8 1016.1 0.0000 0.0000
23:15 15.5 11.3 76 219 0.3 0.6 1016.2 0.0000 0.0000
23:26 15.3 11.1 76 270 0.3 0.6 1016.3 0.0000 0.0000
23:36 15.1 11.1 77 216 0.6 1.4 1016.2 0.0000 0.0000
23:45 14.8 10.8 77 225 0.8 1.4 1016.3 0.0000 0.0000
23:55 14.6 10.6 77 225 0.6 1.4 1016.3 0.0000

DAY STATISTIC

2021-08-01
TEMPERATURE
AVERAGE
16.0
HIGH
22.9
16:53
LOW
10.0
06:08
PRESSURE
AVERAGE
1015.7
HIGH
1016.7
00:26
LOW
1014.3
17:04
DEWPOINT
AVERAGE
9.8
HIGH
12.5
20:04
LOW
7.5
05:38
HUMIDITY
AVERAGE
69
HIGH
87
07:58
LOW
44
16:23
WIND SPEED
AVERAGE
0.7
HIGH
1.4
02:16
WIND GUST
AVERAGE
1.7
HIGH
4.7
17:34
WIND DIRECTION
PREVAILING
SW
40.1%
N
1.4
NE
0.0
E
1.4
SE
2.1
S
4.9
SW
40.1
W
24.6
NW
25.4
PRECIPITATION
RAIN HOUR
0.0
RAIN DAY
0.0
TEMPERATURE (°C)
LOW
10.0
HIGH
22.9
AVERAGE
16.0
PRESSURE (hpa)
LOW
1014.3
HIGH
1016.7
AVERAGE
1015.7
DEVICE